Time;durP1;ratioP1;P1;durP2;ratioP2;P2;SDS_P1;SDS_P2;PMS_P1;PMS_P2;Temp;Humidity;BMP_temperature;BMP_pressure;BME280_temperature;BME280_humidity;BME280_pressure;Samples;Min_cycle;Max_cycle;Signal;HPM_P1;HPM_P2
2024/02/02 00:02:07;;;;;;;7.83;4.00;;;;;;;;;;4988380;28;20533;-84
2024/02/02 00:04:35;;;;;;;9.73;4.00;;;;;;;;;;4982096;28;20465;-85
2024/02/02 00:07:02;;;;;;;6.07;4.60;;;;;;;;;;4997590;28;20455;-86
2024/02/02 00:09:32;;;;;;;12.37;4.90;;;;;;;;;;5006516;28;20565;-85
2024/02/02 00:12:00;;;;;;;15.20;5.90;;;;;;;;;;4996138;28;20485;-83
2024/02/02 00:14:27;;;;;;;11.30;4.83;;;;;;;;;;5005391;28;20447;-83
2024/02/02 00:16:54;;;;;;;8.50;4.10;;;;;;;;;;4988513;28;20451;-85
2024/02/02 00:19:22;;;;;;;11.03;4.40;;;;;;;;;;4990355;28;20896;-87
2024/02/02 00:21:49;;;;;;;11.07;4.33;;;;;;;;;;5005586;28;20459;-86
2024/02/02 00:24:19;;;;;;;19.00;5.27;;;;;;;;;;5008603;28;20602;-84
2024/02/02 00:26:52;;;;;;;7.67;4.27;;;;;;;;;;5013464;28;20522;-85
2024/02/02 00:29:22;;;;;;;12.53;4.43;;;;;;;;;;4998414;28;20786;-85
2024/02/02 00:31:49;;;;;;;16.87;4.53;;;;;;;;;;5006698;28;20544;-84
2024/02/02 00:34:16;;;;;;;11.37;4.17;;;;;;;;;;4982151;28;20465;-85
2024/02/02 00:36:43;;;;;;;9.90;4.60;;;;;;;;;;5001269;28;20482;-84
2024/02/02 00:39:11;;;;;;;14.50;5.10;;;;;;;;;;4982950;28;20497;-86
2024/02/02 00:41:38;;;;;;;11.47;4.33;;;;;;;;;;5004816;28;20524;-85
2024/02/02 00:44:08;;;;;;;6.83;3.93;;;;;;;;;;5005006;28;20509;-86
2024/02/02 00:46:35;;;;;;;11.73;3.90;;;;;;;;;;5004842;28;20874;-85
2024/02/02 00:49:03;;;;;;;7.70;3.67;;;;;;;;;;4987393;28;20479;-85
2024/02/02 00:51:30;;;;;;;18.60;4.20;;;;;;;;;;5007412;28;20485;-85
2024/02/02 00:54:00;;;;;;;9.97;4.93;;;;;;;;;;5002368;28;20473;-83
2024/02/02 00:56:28;;;;;;;8.83;3.87;;;;;;;;;;5007037;28;20454;-84
2024/02/02 00:58:55;;;;;;;8.73;4.30;;;;;;;;;;5023222;28;20450;-83
2024/02/02 01:01:22;;;;;;;11.37;4.20;;;;;;;;;;4992880;28;20766;-85
2024/02/02 01:03:50;;;;;;;14.17;4.57;;;;;;;;;;5001649;28;20527;-84
2024/02/02 01:06:17;;;;;;;10.00;4.17;;;;;;;;;;4999884;28;20461;-84
2024/02/02 01:08:46;;;;;;;12.17;5.60;;;;;;;;;;4965289;28;20488;-85
2024/02/02 01:11:13;;;;;;;6.50;3.47;;;;;;;;;;5005028;28;20514;-86
2024/02/02 01:13:40;;;;;;;11.60;3.70;;;;;;;;;;5001877;28;20468;-84
2024/02/02 01:16:09;;;;;;;11.60;4.23;;;;;;;;;;4977510;28;20464;-84
2024/02/02 01:18:36;;;;;;;13.50;3.47;;;;;;;;;;5005095;28;20585;-85
2024/02/02 01:21:04;;;;;;;8.13;4.13;;;;;;;;;;5001590;28;20546;-84
2024/02/02 01:23:32;;;;;;;11.00;5.00;;;;;;;;;;4989237;28;20493;-85
2024/02/02 01:25:59;;;;;;;10.53;5.00;;;;;;;;;;5011465;28;20515;-84
2024/02/02 01:28:26;;;;;;;12.07;3.30;;;;;;;;;;5013920;28;20466;-86
2024/02/02 01:30:53;;;;;;;10.93;3.77;;;;;;;;;;5011977;28;20457;-86
2024/02/02 01:33:20;;;;;;;11.80;3.70;;;;;;;;;;5012139;28;20486;-84
2024/02/02 01:35:48;;;;;;;14.33;4.27;;;;;;;;;;5007575;28;20478;-84
2024/02/02 01:38:16;;;;;;;10.97;4.17;;;;;;;;;;5006187;28;20502;-83
2024/02/02 01:40:45;;;;;;;10.57;4.53;;;;;;;;;;5009262;28;20447;-84
2024/02/02 01:43:12;;;;;;;10.30;4.57;;;;;;;;;;5004148;28;20557;-87
2024/02/02 01:45:40;;;;;;;17.93;4.30;;;;;;;;;;5003565;28;20478;-84
2024/02/02 01:48:09;;;;;;;13.07;4.57;;;;;;;;;;5000453;28;20485;-84
2024/02/02 01:50:37;;;;;;;12.10;4.30;;;;;;;;;;5013464;28;20515;-84
2024/02/02 01:53:07;;;;;;;13.80;4.90;;;;;;;;;;5012395;28;20933;-84
2024/02/02 01:55:36;;;;;;;10.40;4.60;;;;;;;;;;4993332;28;20458;-85
2024/02/02 01:58:04;;;;;;;6.33;3.43;;;;;;;;;;4984325;28;20568;-84
2024/02/02 02:00:31;;;;;;;7.30;3.63;;;;;;;;;;4985484;28;20463;-83
2024/02/02 02:02:58;;;;;;;7.40;4.07;;;;;;;;;;4988487;28;20442;-84
2024/02/02 02:05:26;;;;;;;11.30;4.37;;;;;;;;;;4985431;28;20509;-85
2024/02/02 02:07:53;;;;;;;16.43;5.47;;;;;;;;;;5008145;28;20582;-85
2024/02/02 02:10:25;;;;;;;11.47;4.27;;;;;;;;;;5008463;28;20462;-85
2024/02/02 02:12:55;;;;;;;12.63;4.77;;;;;;;;;;4982219;28;20532;-84
2024/02/02 02:15:26;;;;;;;10.30;4.23;;;;;;;;;;4987041;28;20450;-82
2024/02/02 02:17:58;;;;;;;6.10;3.77;;;;;;;;;;4986219;28;20501;-84
2024/02/02 02:20:26;;;;;;;10.70;4.20;;;;;;;;;;5018344;28;20457;-87
2024/02/02 02:22:53;;;;;;;9.63;4.97;;;;;;;;;;5014213;28;20451;-85
2024/02/02 02:25:21;;;;;;;14.00;4.30;;;;;;;;;;5011357;28;20473;-86
2024/02/02 02:27:48;;;;;;;12.10;4.10;;;;;;;;;;4983417;28;20490;-85
2024/02/02 02:30:16;;;;;;;12.90;5.00;;;;;;;;;;4992686;28;20468;-86
2024/02/02 02:32:43;;;;;;;16.63;4.80;;;;;;;;;;5007979;28;21052;-85
2024/02/02 02:35:11;;;;;;;15.47;4.40;;;;;;;;;;5007625;28;20489;-84
2024/02/02 02:37:39;;;;;;;15.47;5.97;;;;;;;;;;4973565;28;20529;-84
2024/02/02 02:40:09;;;;;;;7.37;4.23;;;;;;;;;;4983355;28;21174;-83
2024/02/02 02:42:36;;;;;;;8.43;4.47;;;;;;;;;;5008064;28;20504;-84
2024/02/02 02:45:04;;;;;;;8.87;3.90;;;;;;;;;;5011164;28;20998;-85
2024/02/02 02:47:35;;;;;;;17.20;4.90;;;;;;;;;;4994262;28;20473;-85
2024/02/02 02:50:04;;;;;;;12.83;4.33;;;;;;;;;;5003022;28;20685;-85
2024/02/02 02:52:34;;;;;;;8.90;4.07;;;;;;;;;;5011431;28;20673;-87
2024/02/02 02:55:05;;;;;;;9.13;5.30;;;;;;;;;;5014511;28;20526;-84
2024/02/02 02:57:34;;;;;;;8.70;4.70;;;;;;;;;;5031449;28;20561;-84
2024/02/02 03:00:02;;;;;;;5.10;3.20;;;;;;;;;;5007336;28;20513;-85
2024/02/02 03:02:30;;;;;;;8.83;3.97;;;;;;;;;;4994355;28;21728;-86
2024/02/02 03:04:58;;;;;;;11.23;3.87;;;;;;;;;;4992898;28;20464;-86
2024/02/02 03:07:25;;;;;;;8.47;4.00;;;;;;;;;;4991473;28;20470;-84
2024/02/02 03:09:53;;;;;;;12.53;4.43;;;;;;;;;;5004654;28;20465;-85
2024/02/02 03:12:20;;;;;;;12.33;4.10;;;;;;;;;;4988743;28;20470;-84
2024/02/02 03:14:47;;;;;;;16.47;4.73;;;;;;;;;;4989464;28;20438;-83
2024/02/02 03:17:14;;;;;;;11.83;4.00;;;;;;;;;;4987400;28;20443;-84
2024/02/02 03:19:47;;;;;;;9.63;4.20;;;;;;;;;;4995170;28;20490;-83
2024/02/02 03:22:17;;;;;;;7.90;3.20;;;;;;;;;;4969675;28;20526;-85
2024/02/02 03:24:44;;;;;;;13.20;4.47;;;;;;;;;;5011736;28;20463;-85
2024/02/02 03:27:12;;;;;;;7.47;3.20;;;;;;;;;;5005011;28;20442;-82
2024/02/02 03:29:39;;;;;;;9.03;3.50;;;;;;;;;;5013380;28;20446;-83
2024/02/02 03:32:06;;;;;;;11.40;3.40;;;;;;;;;;5011008;28;20484;-86
2024/02/02 03:34:33;;;;;;;12.97;4.77;;;;;;;;;;5016428;28;20450;-86
2024/02/02 03:37:02;;;;;;;9.60;3.77;;;;;;;;;;5008593;28;20473;-84
2024/02/02 03:39:29;;;;;;;9.83;3.80;;;;;;;;;;5010907;28;20472;-85
2024/02/02 03:41:57;;;;;;;10.23;3.70;;;;;;;;;;5004931;28;20533;-86
2024/02/02 03:44:24;;;;;;;8.20;3.73;;;;;;;;;;5004987;28;20549;-85
2024/02/02 03:46:51;;;;;;;7.20;3.90;;;;;;;;;;4983254;28;20644;-85
2024/02/02 03:49:19;;;;;;;11.07;3.70;;;;;;;;;;5013807;28;20475;-86
2024/02/02 03:51:46;;;;;;;12.60;4.27;;;;;;;;;;4991355;28;20474;-85
2024/02/02 03:54:13;;;;;;;10.87;3.90;;;;;;;;;;4999505;28;20462;-85
2024/02/02 03:56:42;;;;;;;10.57;3.80;;;;;;;;;;4990637;28;20569;-86
2024/02/02 03:59:10;;;;;;;8.20;3.87;;;;;;;;;;4980834;28;20482;-85
2024/02/02 04:01:37;;;;;;;7.13;4.03;;;;;;;;;;4991904;28;20503;-85
2024/02/02 04:04:04;;;;;;;14.40;5.83;;;;;;;;;;5008668;28;20454;-85
2024/02/02 04:06:32;;;;;;;9.10;4.60;;;;;;;;;;4994291;28;21247;-85
2024/02/02 04:08:59;;;;;;;6.60;3.90;;;;;;;;;;5008259;28;21384;-83
2024/02/02 04:11:26;;;;;;;10.63;4.03;;;;;;;;;;4979575;28;21849;-84
2024/02/02 04:13:53;;;;;;;10.87;4.23;;;;;;;;;;4979687;28;20588;-84
2024/02/02 04:16:21;;;;;;;10.30;4.00;;;;;;;;;;5011748;28;20458;-85
2024/02/02 04:18:48;;;;;;;10.77;4.00;;;;;;;;;;5005785;28;20507;-84
2024/02/02 04:21:16;;;;;;;10.40;5.10;;;;;;;;;;5004491;28;20481;-86
2024/02/02 04:23:43;;;;;;;8.10;4.40;;;;;;;;;;4999254;28;20462;-86
2024/02/02 04:26:10;;;;;;;11.20;3.93;;;;;;;;;;4990061;28;20470;-85
2024/02/02 04:28:38;;;;;;;10.70;4.77;;;;;;;;;;5009639;28;20554;-86
2024/02/02 04:31:05;;;;;;;16.37;4.37;;;;;;;;;;5007636;28;20458;-86
2024/02/02 04:33:32;;;;;;;9.60;4.13;;;;;;;;;;5008201;28;20475;-85
2024/02/02 04:36:00;;;;;;;9.07;4.87;;;;;;;;;;4990695;28;20505;-84
2024/02/02 04:38:27;;;;;;;15.23;4.60;;;;;;;;;;4980585;28;21192;-84
2024/02/02 04:40:54;;;;;;;6.97;4.23;;;;;;;;;;4979475;28;21976;-85
2024/02/02 04:43:22;;;;;;;12.20;5.00;;;;;;;;;;4988472;28;20490;-85
2024/02/02 04:45:49;;;;;;;15.20;4.50;;;;;;;;;;4991338;28;20528;-85
2024/02/02 04:48:16;;;;;;;9.67;5.20;;;;;;;;;;4977988;28;20486;-85
2024/02/02 04:50:43;;;;;;;13.27;4.13;;;;;;;;;;4988192;28;21018;-85
2024/02/02 04:53:13;;;;;;;11.67;4.30;;;;;;;;;;5004426;28;20531;-86
2024/02/02 04:55:40;;;;;;;8.73;4.40;;;;;;;;;;4979200;28;20459;-84
2024/02/02 04:58:08;;;;;;;11.00;4.57;;;;;;;;;;5005498;28;20486;-85
2024/02/02 05:00:38;;;;;;;11.83;4.83;;;;;;;;;;4988653;28;20915;-86
2024/02/02 05:03:05;;;;;;;16.37;4.83;;;;;;;;;;5005247;28;20465;-84
2024/02/02 05:05:32;;;;;;;8.77;3.83;;;;;;;;;;5005473;28;20455;-85
2024/02/02 05:07:59;;;;;;;17.57;4.73;;;;;;;;;;4988973;28;20474;-84
2024/02/02 05:10:27;;;;;;;20.97;7.20;;;;;;;;;;5006287;28;20462;-85
2024/02/02 05:12:54;;;;;;;14.60;3.80;;;;;;;;;;5005308;28;20580;-86
2024/02/02 05:15:21;;;;;;;14.90;7.47;;;;;;;;;;4982451;28;21070;-84
2024/02/02 05:17:51;;;;;;;9.93;4.90;;;;;;;;;;5008457;28;20602;-84
2024/02/02 05:20:21;;;;;;;16.47;6.70;;;;;;;;;;5004743;28;20541;-86
2024/02/02 05:22:53;;;;;;;9.43;4.17;;;;;;;;;;4991445;28;20796;-84
2024/02/02 05:25:20;;;;;;;15.07;4.80;;;;;;;;;;5007121;28;20466;-84
2024/02/02 05:27:48;;;;;;;11.97;4.00;;;;;;;;;;5007317;28;20510;-86
2024/02/02 05:30:23;;;;;;;10.23;4.73;;;;;;;;;;5016413;28;20434;-82
2024/02/02 05:32:53;;;;;;;14.87;5.57;;;;;;;;;;5009691;28;20490;-83
2024/02/02 05:35:23;;;;;;;12.87;5.07;;;;;;;;;;4994574;28;20455;-84
2024/02/02 05:37:50;;;;;;;11.57;4.57;;;;;;;;;;5007165;28;20929;-84
2024/02/02 05:40:18;;;;;;;14.77;5.23;;;;;;;;;;4986854;28;20450;-85
2024/02/02 05:42:45;;;;;;;12.60;5.37;;;;;;;;;;4986527;28;20497;-84
2024/02/02 05:45:13;;;;;;;11.80;4.47;;;;;;;;;;5011793;28;20463;-86
2024/02/02 05:47:40;;;;;;;14.37;4.63;;;;;;;;;;5013530;28;20515;-83
2024/02/02 05:50:09;;;;;;;16.47;5.03;;;;;;;;;;5013116;28;20492;-83
2024/02/02 05:52:39;;;;;;;13.20;5.60;;;;;;;;;;5014667;28;20518;-84
2024/02/02 05:55:09;;;;;;;11.17;3.50;;;;;;;;;;5021820;28;20431;-83
2024/02/02 05:57:36;;;;;;;11.23;4.10;;;;;;;;;;4987145;28;20466;-85
2024/02/02 06:00:05;;;;;;;9.90;4.67;;;;;;;;;;4974639;28;20465;-84
2024/02/02 06:02:32;;;;;;;23.20;5.50;;;;;;;;;;5004225;28;20484;-86
2024/02/02 06:05:02;;;;;;;13.87;5.07;;;;;;;;;;5004134;28;21539;-86
2024/02/02 06:07:32;;;;;;;10.90;4.07;;;;;;;;;;5004746;28;20471;-85
2024/02/02 06:09:59;;;;;;;15.00;4.57;;;;;;;;;;4989665;28;20970;-85
2024/02/02 06:12:29;;;;;;;9.43;4.50;;;;;;;;;;4991726;28;20529;-85
2024/02/02 06:14:56;;;;;;;9.07;5.10;;;;;;;;;;5007409;28;21008;-87
2024/02/02 06:17:24;;;;;;;14.63;4.43;;;;;;;;;;4980571;28;20446;-84
2024/02/02 06:19:51;;;;;;;14.03;5.20;;;;;;;;;;4990576;28;20590;-84
2024/02/02 06:22:21;;;;;;;11.40;4.40;;;;;;;;;;5006790;28;20517;-83
2024/02/02 06:24:49;;;;;;;12.30;5.17;;;;;;;;;;4991705;28;20483;-84
2024/02/02 06:27:16;;;;;;;11.33;3.77;;;;;;;;;;4982133;28;20534;-85
2024/02/02 06:29:44;;;;;;;10.20;4.40;;;;;;;;;;5003147;28;20484;-85
2024/02/02 06:32:13;;;;;;;9.67;4.20;;;;;;;;;;5006530;28;20498;-84
2024/02/02 06:34:41;;;;;;;6.93;4.10;;;;;;;;;;5005183;28;20529;-83
2024/02/02 06:37:08;;;;;;;14.33;5.67;;;;;;;;;;4987053;28;20455;-86
2024/02/02 06:39:35;;;;;;;8.63;4.23;;;;;;;;;;4991102;28;20517;-83
2024/02/02 06:42:05;;;;;;;11.43;4.20;;;;;;;;;;5008839;28;20473;-84
2024/02/02 06:44:33;;;;;;;8.77;4.23;;;;;;;;;;5008909;28;20462;-84
2024/02/02 06:47:00;;;;;;;12.07;4.73;;;;;;;;;;4991272;28;20869;-83
2024/02/02 06:49:27;;;;;;;10.63;4.27;;;;;;;;;;4985046;28;20505;-84
2024/02/02 06:51:54;;;;;;;11.93;5.27;;;;;;;;;;4987300;28;20450;-83
2024/02/02 06:54:31;;;;;;;8.10;4.70;;;;;;;;;;4981081;28;20549;-85
2024/02/02 06:57:01;;;;;;;9.03;4.73;;;;;;;;;;4982249;28;20459;-83
2024/02/02 06:59:34;;;;;;;13.43;4.57;;;;;;;;;;4995230;28;20602;-84
2024/02/02 07:02:11;;;;;;;10.03;4.40;;;;;;;;;;5022205;28;20455;-85
2024/02/02 07:04:38;;;;;;;8.70;4.00;;;;;;;;;;5019369;28;20418;-84
2024/02/02 07:07:07;;;;;;;12.73;4.40;;;;;;;;;;5001767;28;20426;-85
2024/02/02 07:09:38;;;;;;;11.90;4.70;;;;;;;;;;4993540;28;20447;-84
2024/02/02 07:12:06;;;;;;;10.40;4.77;;;;;;;;;;5011419;28;20941;-87
2024/02/02 07:14:50;;;;;;;11.70;5.40;;;;;;;;;;4992756;28;20483;-83
2024/02/02 07:17:37;;;;;;;13.00;4.73;;;;;;;;;;4986022;28;20482;-85
2024/02/02 07:20:32;;;;;;;12.07;4.90;;;;;;;;;;4984167;28;20458;-87
2024/02/02 07:23:01;;;;;;;14.97;4.60;;;;;;;;;;4989056;28;20570;-86
2024/02/02 07:25:31;;;;;;;10.10;5.40;;;;;;;;;;5007474;28;20683;-83
2024/02/02 07:28:01;;;;;;;15.03;5.70;;;;;;;;;;4982649;28;20480;-84
2024/02/02 07:30:31;;;;;;;10.20;5.50;;;;;;;;;;4987736;28;20447;-86
2024/02/02 07:32:59;;;;;;;11.03;4.70;;;;;;;;;;4992668;28;21339;-84
2024/02/02 07:35:30;;;;;;;9.73;5.97;;;;;;;;;;4990600;28;20469;-83
2024/02/02 07:38:02;;;;;;;16.03;5.57;;;;;;;;;;4992266;28;20486;-86
2024/02/02 07:40:51;;;;;;;14.17;5.17;;;;;;;;;;4984628;28;20470;-85
2024/02/02 07:43:18;;;;;;;13.77;7.60;;;;;;;;;;5000333;28;20486;-83
2024/02/02 07:45:46;;;;;;;8.33;4.57;;;;;;;;;;4995279;28;20504;-83
2024/02/02 07:48:13;;;;;;;10.80;4.47;;;;;;;;;;5008105;28;20483;-85
2024/02/02 07:50:40;;;;;;;8.20;4.23;;;;;;;;;;5028576;28;20486;-85
2024/02/02 07:53:07;;;;;;;12.70;5.20;;;;;;;;;;5027978;28;21372;-85
2024/02/02 07:55:35;;;;;;;10.67;5.30;;;;;;;;;;5012720;28;20458;-84
2024/02/02 07:58:02;;;;;;;10.77;5.27;;;;;;;;;;5019017;28;20457;-85
2024/02/02 08:00:30;;;;;;;11.47;5.30;;;;;;;;;;5013047;28;20469;-84
2024/02/02 08:02:57;;;;;;;13.00;5.20;;;;;;;;;;5031771;28;20501;-86
2024/02/02 08:05:28;;;;;;;9.00;5.17;;;;;;;;;;5007631;28;20443;-85
2024/02/02 08:07:55;;;;;;;8.83;4.57;;;;;;;;;;4998016;28;20495;-85
2024/02/02 08:10:23;;;;;;;10.80;5.10;;;;;;;;;;5013773;28;20637;-85
2024/02/02 08:12:53;;;;;;;13.03;5.43;;;;;;;;;;5031063;28;20513;-84
2024/02/02 08:15:20;;;;;;;12.07;4.33;;;;;;;;;;5029527;28;20438;-84
2024/02/02 08:17:48;;;;;;;9.10;5.67;;;;;;;;;;4995783;28;20573;-85
2024/02/02 08:20:15;;;;;;;12.90;5.37;;;;;;;;;;4989226;28;20494;-87
2024/02/02 08:22:46;;;;;;;10.83;5.50;;;;;;;;;;4987214;28;20458;-84
2024/02/02 08:25:14;;;;;;;7.20;4.50;;;;;;;;;;5015922;28;20512;-84
2024/02/02 08:27:43;;;;;;;11.27;4.50;;;;;;;;;;4991428;28;20544;-84
2024/02/02 08:30:14;;;;;;;7.53;4.97;;;;;;;;;;4996751;28;21891;-85
2024/02/02 08:32:43;;;;;;;13.30;5.57;;;;;;;;;;4987916;28;20488;-85
2024/02/02 08:35:13;;;;;;;14.50;5.97;;;;;;;;;;5012911;28;20506;-84
2024/02/02 08:37:42;;;;;;;10.03;5.40;;;;;;;;;;4987225;28;20474;-83
2024/02/02 08:40:32;;;;;;;9.03;5.23;;;;;;;;;;4998430;28;21083;-83
2024/02/02 08:42:59;;;;;;;11.50;5.07;;;;;;;;;;5001928;28;20455;-85
2024/02/02 08:45:42;;;;;;;10.90;5.47;;;;;;;;;;4990751;28;20482;-85
2024/02/02 08:48:32;;;;;;;8.50;4.93;;;;;;;;;;5015692;28;20486;-84
2024/02/02 08:51:00;;;;;;;9.77;5.13;;;;;;;;;;4989014;28;20923;-85
2024/02/02 08:53:27;;;;;;;11.80;5.07;;;;;;;;;;5011992;28;20490;-83
2024/02/02 08:56:00;;;;;;;15.07;5.57;;;;;;;;;;5010548;28;20451;-84
2024/02/02 08:58:34;;;;;;;13.50;4.90;;;;;;;;;;4986987;28;20802;-84
2024/02/02 09:01:03;;;;;;;7.83;4.60;;;;;;;;;;4987645;28;20445;-84
2024/02/02 09:03:43;;;;;;;10.83;4.57;;;;;;;;;;4992221;28;20454;-86
2024/02/02 09:06:16;;;;;;;9.40;4.53;;;;;;;;;;4991937;28;21022;-85
2024/02/02 09:08:44;;;;;;;10.43;4.03;;;;;;;;;;5010368;28;20464;-86
2024/02/02 09:11:38;;;;;;;7.97;4.40;;;;;;;;;;4986290;28;20475;-87
2024/02/02 09:14:14;;;;;;;7.40;3.70;;;;;;;;;;4990926;28;20493;-86
2024/02/02 09:16:42;;;;;;;11.97;3.93;;;;;;;;;;5008801;28;20445;-86
2024/02/02 09:19:33;;;;;;;8.63;4.03;;;;;;;;;;5014266;28;20539;-84
2024/02/02 09:22:02;;;;;;;10.20;4.60;;;;;;;;;;4984096;28;20485;-86
2024/02/02 09:24:36;;;;;;;6.93;3.83;;;;;;;;;;4989053;28;20455;-84
2024/02/02 09:27:04;;;;;;;8.23;3.73;;;;;;;;;;5013832;28;20450;-85
2024/02/02 09:29:31;;;;;;;7.40;3.57;;;;;;;;;;4986589;28;20560;-85
2024/02/02 09:31:59;;;;;;;9.30;3.20;;;;;;;;;;4983921;28;20504;-86
2024/02/02 09:34:26;;;;;;;8.33;3.77;;;;;;;;;;4999336;28;20546;-85
2024/02/02 09:36:54;;;;;;;5.40;2.83;;;;;;;;;;4980009;28;20453;-84
2024/02/02 09:39:21;;;;;;;6.77;3.40;;;;;;;;;;4990055;28;20454;-85
2024/02/02 09:41:51;;;;;;;5.97;2.60;;;;;;;;;;5003309;28;20461;-86
2024/02/02 09:44:40;;;;;;;5.83;1.93;;;;;;;;;;4997668;28;20469;-85
2024/02/02 09:47:10;;;;;;;3.87;2.03;;;;;;;;;;4998454;28;20454;-86
2024/02/02 09:49:46;;;;;;;4.67;2.10;;;;;;;;;;4988876;28;20455;-86
2024/02/02 09:52:34;;;;;;;6.90;2.53;;;;;;;;;;4997864;28;20590;-85
2024/02/02 09:55:29;;;;;;;8.23;2.40;;;;;;;;;;4997251;28;20517;-84
2024/02/02 09:58:10;;;;;;;9.03;2.00;;;;;;;;;;4999698;28;20561;-85
2024/02/02 10:00:46;;;;;;;4.60;2.03;;;;;;;;;;4988808;28;20462;-86
2024/02/02 10:03:27;;;;;;;4.20;1.93;;;;;;;;;;5003772;28;20455;-85
2024/02/02 10:06:13;;;;;;;9.13;2.10;;;;;;;;;;5010779;28;21221;-85
2024/02/02 10:09:03;;;;;;;7.67;2.23;;;;;;;;;;5010623;28;20474;-85
2024/02/02 10:11:37;;;;;;;4.43;1.50;;;;;;;;;;4993756;28;20467;-85
2024/02/02 10:14:23;;;;;;;7.67;2.40;;;;;;;;;;5009642;28;20463;-85
2024/02/02 10:17:04;;;;;;;9.90;2.13;;;;;;;;;;5008744;28;20517;-82
2024/02/02 10:19:50;;;;;;;5.10;2.47;;;;;;;;;;5013417;28;20471;-86
2024/02/02 10:22:29;;;;;;;10.10;2.40;;;;;;;;;;5011001;28;20450;-85
2024/02/02 10:25:05;;;;;;;5.73;1.70;;;;;;;;;;4996235;28;21099;-85
2024/02/02 10:27:52;;;;;;;7.00;2.00;;;;;;;;;;4982068;28;20927;-85
2024/02/02 10:30:32;;;;;;;5.83;2.50;;;;;;;;;;5014386;28;20458;-85
2024/02/02 10:33:29;;;;;;;3.33;2.00;;;;;;;;;;4984859;28;20462;-85
2024/02/02 10:36:07;;;;;;;6.10;1.90;;;;;;;;;;4935633;28;20442;-84
2024/02/02 10:38:34;;;;;;;5.87;2.00;;;;;;;;;;4995406;28;20482;-85
2024/02/02 10:41:02;;;;;;;6.67;1.90;;;;;;;;;;4999051;28;20435;-85
2024/02/02 10:43:42;;;;;;;5.23;2.20;;;;;;;;;;5022683;28;20501;-84
2024/02/02 10:46:18;;;;;;;5.40;1.90;;;;;;;;;;5005392;28;20472;-85
2024/02/02 10:48:57;;;;;;;5.80;1.67;;;;;;;;;;5006817;28;20561;-84
2024/02/02 10:51:43;;;;;;;7.67;2.80;;;;;;;;;;5006307;28;20427;-85
2024/02/02 10:54:12;;;;;;;6.00;2.20;;;;;;;;;;4990567;28;20478;-85
2024/02/02 10:56:45;;;;;;;8.17;3.53;;;;;;;;;;5006362;28;20469;-86
2024/02/02 10:59:38;;;;;;;5.03;2.00;;;;;;;;;;4991260;28;20474;-85
2024/02/02 11:02:38;;;;;;;7.50;2.07;;;;;;;;;;4990284;28;20466;-84
2024/02/02 11:05:26;;;;;;;5.23;2.07;;;;;;;;;;4959819;28;21205;-84
2024/02/02 11:08:01;;;;;;;5.77;2.60;;;;;;;;;;4980122;28;20471;-87
2024/02/02 11:10:38;;;;;;;12.37;2.83;;;;;;;;;;5015890;28;20451;-84
2024/02/02 11:13:25;;;;;;;7.10;2.53;;;;;;;;;;4995583;28;20442;-83
2024/02/02 11:16:02;;;;;;;6.47;2.70;;;;;;;;;;4994413;28;20787;-85
2024/02/02 11:18:41;;;;;;;7.57;2.47;;;;;;;;;;5000497;28;20469;-83
2024/02/02 11:21:17;;;;;;;6.87;2.43;;;;;;;;;;5011612;28;20502;-84
2024/02/02 11:23:51;;;;;;;9.40;4.00;;;;;;;;;;4997509;28;20460;-84
2024/02/02 11:26:34;;;;;;;12.30;3.13;;;;;;;;;;5011812;28;21249;-83
2024/02/02 11:29:19;;;;;;;6.23;2.63;;;;;;;;;;4993579;28;20485;-84
2024/02/02 11:31:54;;;;;;;8.27;3.00;;;;;;;;;;5013276;28;20549;-82
2024/02/02 11:34:53;;;;;;;4.00;2.33;;;;;;;;;;4991452;28;20529;-83
2024/02/02 11:38:03;;;;;;;4.80;2.13;;;;;;;;;;4970783;28;20462;-86
2024/02/02 11:40:34;;;;;;;9.17;2.73;;;;;;;;;;4938258;28;20544;-84
2024/02/02 11:43:06;;;;;;;11.80;3.50;;;;;;;;;;4987530;28;20477;-82
2024/02/02 11:45:42;;;;;;;5.63;2.50;;;;;;;;;;5004338;28;20538;-83
2024/02/02 11:48:28;;;;;;;8.40;2.80;;;;;;;;;;4997655;28;20455;-84
2024/02/02 11:50:55;;;;;;;10.63;2.93;;;;;;;;;;5012924;28;20455;-84
2024/02/02 11:53:31;;;;;;;5.77;2.60;;;;;;;;;;4984246;28;20478;-85
2024/02/02 11:56:03;;;;;;;6.90;2.73;;;;;;;;;;4997816;28;20883;-84
2024/02/02 11:58:41;;;;;;;4.57;2.33;;;;;;;;;;4991683;28;21242;-84
2024/02/02 12:01:28;;;;;;;5.17;2.57;;;;;;;;;;4988769;28;20449;-84
2024/02/02 12:04:11;;;;;;;10.23;3.20;;;;;;;;;;4996736;28;20659;-84
2024/02/02 12:06:45;;;;;;;6.97;4.13;;;;;;;;;;4988865;28;20478;-84
2024/02/02 12:09:25;;;;;;;5.70;2.87;;;;;;;;;;4986747;28;20518;-84
2024/02/02 12:11:56;;;;;;;8.80;2.40;;;;;;;;;;4986208;28;20874;-83
2024/02/02 12:14:33;;;;;;;4.80;2.73;;;;;;;;;;4993638;28;20494;-85
2024/02/02 12:17:59;;;;;;;9.77;3.33;;;;;;;;;;4990365;28;20465;-86
2024/02/02 12:21:01;;;;;;;6.43;2.70;;;;;;;;;;4988391;28;20451;-84
2024/02/02 12:23:35;;;;;;;16.80;3.80;;;;;;;;;;5005272;28;20501;-84
2024/02/02 12:26:03;;;;;;;6.60;3.00;;;;;;;;;;5022298;28;20449;-85
2024/02/02 12:28:34;;;;;;;10.10;2.60;;;;;;;;;;4987249;28;20470;-83
2024/02/02 12:31:01;;;;;;;7.63;3.00;;;;;;;;;;5011989;28;21627;-86
2024/02/02 12:33:32;;;;;;;7.60;2.60;;;;;;;;;;4994077;28;21069;-84
2024/02/02 12:36:02;;;;;;;4.90;3.20;;;;;;;;;;5013851;28;21056;-82
2024/02/02 12:38:33;;;;;;;6.80;2.87;;;;;;;;;;4996907;28;20478;-83
2024/02/02 12:41:08;;;;;;;4.87;2.77;;;;;;;;;;5001151;28;20520;-85
2024/02/02 12:43:40;;;;;;;9.13;2.90;;;;;;;;;;4992213;28;20451;-83
2024/02/02 12:46:08;;;;;;;4.03;2.43;;;;;;;;;;5015331;28;20483;-86
2024/02/02 12:48:38;;;;;;;3.70;2.47;;;;;;;;;;4993812;28;20482;-83
2024/02/02 12:51:12;;;;;;;8.03;2.83;;;;;;;;;;4999863;28;20518;-84
2024/02/02 12:53:42;;;;;;;5.70;2.33;;;;;;;;;;5001836;28;20439;-83
2024/02/02 12:56:10;;;;;;;7.17;2.73;;;;;;;;;;5023060;28;20486;-83
2024/02/02 12:58:37;;;;;;;4.30;2.57;;;;;;;;;;4996080;28;20470;-85
2024/02/02 13:01:09;;;;;;;6.53;2.87;;;;;;;;;;4999850;28;20443;-83
2024/02/02 13:03:37;;;;;;;6.47;2.53;;;;;;;;;;5015552;28;20438;-83
2024/02/02 13:06:10;;;;;;;6.47;2.70;;;;;;;;;;5012864;28;20620;-83
2024/02/02 13:08:42;;;;;;;5.20;2.70;;;;;;;;;;5034364;28;20493;-85
2024/02/02 13:11:23;;;;;;;7.27;3.60;;;;;;;;;;5026042;28;20547;-83
2024/02/02 13:14:03;;;;;;;6.17;3.10;;;;;;;;;;5021284;28;20462;-85
2024/02/02 13:16:39;;;;;;;3.80;2.87;;;;;;;;;;5023434;28;20517;-85
2024/02/02 13:19:30;;;;;;;4.27;2.77;;;;;;;;;;5019523;28;20554;-84
2024/02/02 13:22:02;;;;;;;7.47;3.57;;;;;;;;;;4998970;28;20442;-83
2024/02/02 13:24:32;;;;;;;5.87;3.30;;;;;;;;;;5016745;28;20533;-83
2024/02/02 13:27:05;;;;;;;6.77;3.80;;;;;;;;;;4986931;28;20415;-84
2024/02/02 13:29:37;;;;;;;9.40;3.67;;;;;;;;;;5030641;28;20453;-84
2024/02/02 13:32:17;;;;;;;6.00;3.00;;;;;;;;;;5014130;28;20468;-83
2024/02/02 13:34:45;;;;;;;7.10;3.60;;;;;;;;;;4976570;28;20590;-84
2024/02/02 13:37:36;;;;;;;5.87;3.27;;;;;;;;;;4975776;28;20466;-82
2024/02/02 13:40:13;;;;;;;5.23;3.30;;;;;;;;;;5002557;28;20481;-84
2024/02/02 13:42:45;;;;;;;4.53;2.90;;;;;;;;;;5008442;28;20441;-85
2024/02/02 13:45:15;;;;;;;11.43;6.50;;;;;;;;;;5011443;28;20492;-84
2024/02/02 13:47:59;;;;;;;6.63;4.10;;;;;;;;;;4990557;28;20501;-82
2024/02/02 13:50:50;;;;;;;4.50;3.43;;;;;;;;;;4994441;28;20493;-85
2024/02/02 13:53:24;;;;;;;8.40;3.63;;;;;;;;;;4993695;28;20471;-82
2024/02/02 13:55:56;;;;;;;5.53;2.93;;;;;;;;;;5012871;28;20486;-84
2024/02/02 13:58:26;;;;;;;8.87;3.37;;;;;;;;;;5010839;28;20474;-84
2024/02/02 14:00:56;;;;;;;8.10;3.33;;;;;;;;;;4982625;28;20515;-83
2024/02/02 14:03:41;;;;;;;7.83;3.63;;;;;;;;;;5008861;28;20529;-84
2024/02/02 14:06:18;;;;;;;6.00;3.63;;;;;;;;;;4998971;28;20490;-85
2024/02/02 14:08:52;;;;;;;6.77;3.70;;;;;;;;;;5016271;28;20536;-83
2024/02/02 14:11:26;;;;;;;7.50;3.70;;;;;;;;;;5010144;28;20480;-83
2024/02/02 14:14:02;;;;;;;8.60;3.57;;;;;;;;;;4993302;28;20498;-83
2024/02/02 14:16:33;;;;;;;6.40;3.90;;;;;;;;;;4994072;28;20568;-82
2024/02/02 14:19:05;;;;;;;8.60;4.77;;;;;;;;;;5010553;28;20550;-83
2024/02/02 14:21:33;;;;;;;5.60;2.83;;;;;;;;;;5019245;28;20451;-85
2024/02/02 14:24:22;;;;;;;7.03;3.27;;;;;;;;;;5027373;28;20454;-83
2024/02/02 14:26:53;;;;;;;4.97;3.20;;;;;;;;;;5016388;28;20456;-83
2024/02/02 14:29:25;;;;;;;4.17;3.77;;;;;;;;;;5022333;28;20489;-83
2024/02/02 14:31:59;;;;;;;4.33;3.17;;;;;;;;;;5014059;28;20533;-85
2024/02/02 14:34:35;;;;;;;6.67;3.10;;;;;;;;;;4998454;28;20579;-84
2024/02/02 14:37:23;;;;;;;5.33;2.93;;;;;;;;;;5020956;28;20455;-84
2024/02/02 14:39:59;;;;;;;6.60;3.27;;;;;;;;;;5001664;28;20470;-85
2024/02/02 14:42:29;;;;;;;4.93;3.47;;;;;;;;;;5009014;28;20448;-85
2024/02/02 14:45:11;;;;;;;10.10;6.83;;;;;;;;;;5003106;28;20471;-85
2024/02/02 14:47:38;;;;;;;3.93;3.30;;;;;;;;;;5009664;28;20478;-86
2024/02/02 14:50:10;;;;;;;4.70;3.33;;;;;;;;;;5008398;28;20447;-85
2024/02/02 14:52:41;;;;;;;6.10;4.20;;;;;;;;;;4988897;28;20547;-83
2024/02/02 14:55:13;;;;;;;5.43;3.50;;;;;;;;;;5019203;28;20477;-83
2024/02/02 14:57:42;;;;;;;7.57;3.83;;;;;;;;;;5011856;28;20486;-85
2024/02/02 15:00:30;;;;;;;4.40;3.33;;;;;;;;;;4989975;28;20446;-86
2024/02/02 15:02:59;;;;;;;4.63;4.13;;;;;;;;;;4988280;28;20451;-84
2024/02/02 15:05:34;;;;;;;6.60;3.40;;;;;;;;;;5012090;28;20450;-84
2024/02/02 15:08:04;;;;;;;4.80;3.87;;;;;;;;;;4986121;28;20459;-84